sensor_id;sensor_type;location;lat;lon;timestamp;P1;durP1;ratioP1;P2;durP2;ratioP2
77109;SDS011;66062;52.464;16.922;2023-04-24T00:01:25;25.42;;;15.00;;
77109;SDS011;66062;52.464;16.922;2023-04-24T00:03:51;24.02;;;14.10;;
77109;SDS011;66062;52.464;16.922;2023-04-24T00:06:17;22.98;;;14.75;;
77109;SDS011;66062;52.464;16.922;2023-04-24T00:08:42;22.33;;;15.07;;
77109;SDS011;66062;52.464;16.922;2023-04-24T00:11:08;21.38;;;13.63;;
77109;SDS011;66062;52.464;16.922;2023-04-24T00:13:34;20.67;;;13.13;;
77109;SDS011;66062;52.464;16.922;2023-04-24T00:16:00;21.45;;;14.55;;
77109;SDS011;66062;52.464;16.922;2023-04-24T00:18:25;21.15;;;13.25;;
77109;SDS011;66062;52.464;16.922;2023-04-24T00:20:51;23.02;;;13.70;;
77109;SDS011;66062;52.464;16.922;2023-04-24T00:23:16;23.13;;;13.23;;
77109;SDS011;66062;52.464;16.922;2023-04-24T00:25:41;21.10;;;13.15;;
77109;SDS011;66062;52.464;16.922;2023-04-24T00:28:07;21.98;;;12.90;;
77109;SDS011;66062;52.464;16.922;2023-04-24T00:30:32;19.88;;;11.40;;
77109;SDS011;66062;52.464;16.922;2023-04-24T00:32:58;22.55;;;12.75;;
77109;SDS011;66062;52.464;16.922;2023-04-24T00:35:23;20.13;;;13.23;;
77109;SDS011;66062;52.464;16.922;2023-04-24T00:37:49;20.63;;;12.65;;
77109;SDS011;66062;52.464;16.922;2023-04-24T00:40:15;19.67;;;12.13;;
77109;SDS011;66062;52.464;16.922;2023-04-24T00:42:40;26.08;;;12.52;;
77109;SDS011;66062;52.464;16.922;2023-04-24T00:45:05;19.48;;;12.68;;
77109;SDS011;66062;52.464;16.922;2023-04-24T00:47:32;20.60;;;12.73;;
77109;SDS011;66062;52.464;16.922;2023-04-24T00:49:58;25.23;;;13.23;;
77109;SDS011;66062;52.464;16.922;2023-04-24T00:52:27;17.52;;;11.32;;
77109;SDS011;66062;52.464;16.922;2023-04-24T00:54:53;18.83;;;12.45;;
77109;SDS011;66062;52.464;16.922;2023-04-24T00:57:18;18.63;;;11.70;;
77109;SDS011;66062;52.464;16.922;2023-04-24T00:59:44;19.73;;;11.52;;
77109;SDS011;66062;52.464;16.922;2023-04-24T01:02:10;21.83;;;12.27;;
77109;SDS011;66062;52.464;16.922;2023-04-24T01:04:36;18.42;;;11.32;;
77109;SDS011;66062;52.464;16.922;2023-04-24T01:07:02;17.08;;;11.20;;
77109;SDS011;66062;52.464;16.922;2023-04-24T01:09:29;17.30;;;12.02;;
77109;SDS011;66062;52.464;16.922;2023-04-24T01:11:55;22.70;;;11.73;;
77109;SDS011;66062;52.464;16.922;2023-04-24T01:14:21;20.98;;;12.80;;
77109;SDS011;66062;52.464;16.922;2023-04-24T01:16:47;21.77;;;13.77;;
77109;SDS011;66062;52.464;16.922;2023-04-24T01:19:12;17.30;;;11.25;;
77109;SDS011;66062;52.464;16.922;2023-04-24T01:21:40;20.73;;;11.80;;
77109;SDS011;66062;52.464;16.922;2023-04-24T01:24:08;19.33;;;11.68;;
77109;SDS011;66062;52.464;16.922;2023-04-24T01:26:33;21.58;;;12.20;;
77109;SDS011;66062;52.464;16.922;2023-04-24T01:28:59;20.42;;;12.18;;
77109;SDS011;66062;52.464;16.922;2023-04-24T01:31:24;20.10;;;12.63;;
77109;SDS011;66062;52.464;16.922;2023-04-24T01:33:50;20.55;;;14.15;;
77109;SDS011;66062;52.464;16.922;2023-04-24T01:36:16;23.85;;;15.50;;
77109;SDS011;66062;52.464;16.922;2023-04-24T01:38:43;21.42;;;13.70;;
77109;SDS011;66062;52.464;16.922;2023-04-24T01:41:08;23.50;;;16.05;;
77109;SDS011;66062;52.464;16.922;2023-04-24T01:43:35;24.70;;;15.05;;
77109;SDS011;66062;52.464;16.922;2023-04-24T01:46:00;25.58;;;16.70;;
77109;SDS011;66062;52.464;16.922;2023-04-24T01:48:26;24.27;;;15.68;;
77109;SDS011;66062;52.464;16.922;2023-04-24T01:50:52;27.13;;;17.02;;
77109;SDS011;66062;52.464;16.922;2023-04-24T01:53:17;29.73;;;16.60;;
77109;SDS011;66062;52.464;16.922;2023-04-24T01:55:43;25.30;;;16.05;;
77109;SDS011;66062;52.464;16.922;2023-04-24T01:58:08;23.50;;;15.93;;
77109;SDS011;66062;52.464;16.922;2023-04-24T02:00:34;26.98;;;18.08;;
77109;SDS011;66062;52.464;16.922;2023-04-24T02:03:00;28.45;;;16.13;;
77109;SDS011;66062;52.464;16.922;2023-04-24T02:05:27;24.77;;;15.02;;
77109;SDS011;66062;52.464;16.922;2023-04-24T02:07:52;25.20;;;15.48;;
77109;SDS011;66062;52.464;16.922;2023-04-24T02:10:18;25.85;;;17.27;;
77109;SDS011;66062;52.464;16.922;2023-04-24T02:12:43;26.15;;;15.32;;
77109;SDS011;66062;52.464;16.922;2023-04-24T02:15:09;25.13;;;15.00;;
77109;SDS011;66062;52.464;16.922;2023-04-24T02:17:34;21.95;;;14.60;;
77109;SDS011;66062;52.464;16.922;2023-04-24T02:20:00;20.38;;;14.30;;
77109;SDS011;66062;52.464;16.922;2023-04-24T02:22:25;21.67;;;13.93;;
77109;SDS011;66062;52.464;16.922;2023-04-24T02:24:51;20.88;;;13.60;;
77109;SDS011;66062;52.464;16.922;2023-04-24T02:27:16;19.65;;;13.40;;
77109;SDS011;66062;52.464;16.922;2023-04-24T02:29:41;26.58;;;14.60;;
77109;SDS011;66062;52.464;16.922;2023-04-24T02:32:07;21.85;;;13.95;;
77109;SDS011;66062;52.464;16.922;2023-04-24T02:34:36;19.52;;;13.38;;
77109;SDS011;66062;52.464;16.922;2023-04-24T02:37:02;24.27;;;14.30;;
77109;SDS011;66062;52.464;16.922;2023-04-24T02:39:27;22.10;;;14.05;;
77109;SDS011;66062;52.464;16.922;2023-04-24T02:41:52;23.35;;;15.57;;
77109;SDS011;66062;52.464;16.922;2023-04-24T02:44:18;21.88;;;14.57;;
77109;SDS011;66062;52.464;16.922;2023-04-24T02:46:43;19.45;;;13.63;;
77109;SDS011;66062;52.464;16.922;2023-04-24T02:49:09;19.17;;;13.18;;
77109;SDS011;66062;52.464;16.922;2023-04-24T02:51:36;20.80;;;12.98;;
77109;SDS011;66062;52.464;16.922;2023-04-24T02:54:06;22.83;;;12.95;;
77109;SDS011;66062;52.464;16.922;2023-04-24T02:56:31;19.23;;;12.90;;
77109;SDS011;66062;52.464;16.922;2023-04-24T02:58:57;18.52;;;12.57;;
77109;SDS011;66062;52.464;16.922;2023-04-24T03:01:22;23.20;;;13.60;;
77109;SDS011;66062;52.464;16.922;2023-04-24T03:03:47;20.13;;;13.23;;
77109;SDS011;66062;52.464;16.922;2023-04-24T03:06:14;19.95;;;13.68;;
77109;SDS011;66062;52.464;16.922;2023-04-24T03:08:40;18.83;;;12.73;;
77109;SDS011;66062;52.464;16.922;2023-04-24T03:11:06;19.30;;;12.88;;
77109;SDS011;66062;52.464;16.922;2023-04-24T03:13:31;18.75;;;12.27;;
77109;SDS011;66062;52.464;16.922;2023-04-24T03:15:56;16.67;;;12.15;;
77109;SDS011;66062;52.464;16.922;2023-04-24T03:18:22;23.63;;;13.90;;
77109;SDS011;66062;52.464;16.922;2023-04-24T03:20:47;19.75;;;13.15;;
77109;SDS011;66062;52.464;16.922;2023-04-24T03:23:13;19.85;;;12.82;;
77109;SDS011;66062;52.464;16.922;2023-04-24T03:25:38;17.98;;;12.07;;
77109;SDS011;66062;52.464;16.922;2023-04-24T03:28:04;20.55;;;12.80;;
77109;SDS011;66062;52.464;16.922;2023-04-24T03:30:30;19.60;;;12.73;;
77109;SDS011;66062;52.464;16.922;2023-04-24T03:32:55;18.13;;;12.07;;
77109;SDS011;66062;52.464;16.922;2023-04-24T03:35:20;18.52;;;12.45;;
77109;SDS011;66062;52.464;16.922;2023-04-24T03:37:47;18.92;;;12.52;;
77109;SDS011;66062;52.464;16.922;2023-04-24T03:40:12;18.58;;;13.18;;
77109;SDS011;66062;52.464;16.922;2023-04-24T03:42:37;32.47;;;19.48;;
77109;SDS011;66062;52.464;16.922;2023-04-24T03:45:03;21.52;;;14.85;;
77109;SDS011;66062;52.464;16.922;2023-04-24T03:47:29;18.38;;;12.70;;
77109;SDS011;66062;52.464;16.922;2023-04-24T03:49:54;21.98;;;13.25;;
77109;SDS011;66062;52.464;16.922;2023-04-24T03:52:20;22.20;;;14.15;;
77109;SDS011;66062;52.464;16.922;2023-04-24T03:54:46;24.55;;;15.15;;
77109;SDS011;66062;52.464;16.922;2023-04-24T03:57:11;22.33;;;14.20;;
77109;SDS011;66062;52.464;16.922;2023-04-24T03:59:37;24.30;;;14.35;;
77109;SDS011;66062;52.464;16.922;2023-04-24T04:02:02;18.55;;;13.32;;
77109;SDS011;66062;52.464;16.922;2023-04-24T04:04:28;19.20;;;13.43;;
77109;SDS011;66062;52.464;16.922;2023-04-24T04:06:53;26.70;;;14.43;;
77109;SDS011;66062;52.464;16.922;2023-04-24T04:09:19;53.63;;;32.67;;
77109;SDS011;66062;52.464;16.922;2023-04-24T04:11:44;24.40;;;15.02;;
77109;SDS011;66062;52.464;16.922;2023-04-24T04:14:10;25.70;;;15.05;;
77109;SDS011;66062;52.464;16.922;2023-04-24T04:16:35;20.17;;;13.15;;
77109;SDS011;66062;52.464;16.922;2023-04-24T04:19:01;20.33;;;12.98;;
77109;SDS011;66062;52.464;16.922;2023-04-24T04:21:28;20.38;;;13.13;;
77109;SDS011;66062;52.464;16.922;2023-04-24T04:23:53;23.20;;;14.25;;
77109;SDS011;66062;52.464;16.922;2023-04-24T04:26:19;21.38;;;13.15;;
77109;SDS011;66062;52.464;16.922;2023-04-24T04:28:47;17.98;;;13.25;;
77109;SDS011;66062;52.464;16.922;2023-04-24T04:31:13;18.30;;;13.10;;
77109;SDS011;66062;52.464;16.922;2023-04-24T04:33:48;20.80;;;13.73;;
77109;SDS011;66062;52.464;16.922;2023-04-24T04:36:13;20.25;;;13.68;;
77109;SDS011;66062;52.464;16.922;2023-04-24T04:38:39;17.50;;;11.60;;
77109;SDS011;66062;52.464;16.922;2023-04-24T04:41:05;18.83;;;12.73;;
77109;SDS011;66062;52.464;16.922;2023-04-24T04:43:32;19.38;;;12.20;;
77109;SDS011;66062;52.464;16.922;2023-04-24T04:45:59;17.73;;;11.68;;
77109;SDS011;66062;52.464;16.922;2023-04-24T04:48:28;15.07;;;10.35;;
77109;SDS011;66062;52.464;16.922;2023-04-24T04:50:57;14.80;;;10.38;;
77109;SDS011;66062;52.464;16.922;2023-04-24T04:53:23;14.73;;;10.40;;
77109;SDS011;66062;52.464;16.922;2023-04-24T04:55:49;15.05;;;10.05;;
77109;SDS011;66062;52.464;16.922;2023-04-24T04:58:14;14.13;;;9.52;;
77109;SDS011;66062;52.464;16.922;2023-04-24T05:00:40;14.55;;;9.55;;
77109;SDS011;66062;52.464;16.922;2023-04-24T05:03:07;13.80;;;9.65;;
77109;SDS011;66062;52.464;16.922;2023-04-24T05:05:32;15.00;;;10.07;;
77109;SDS011;66062;52.464;16.922;2023-04-24T05:07:58;16.30;;;10.07;;
77109;SDS011;66062;52.464;16.922;2023-04-24T05:10:24;16.90;;;10.20;;
77109;SDS011;66062;52.464;16.922;2023-04-24T05:12:49;12.85;;;9.40;;
77109;SDS011;66062;52.464;16.922;2023-04-24T05:15:15;15.27;;;9.43;;
77109;SDS011;66062;52.464;16.922;2023-04-24T05:17:40;15.73;;;9.90;;
77109;SDS011;66062;52.464;16.922;2023-04-24T05:20:06;15.43;;;8.63;;
77109;SDS011;66062;52.464;16.922;2023-04-24T05:22:32;13.80;;;9.07;;
77109;SDS011;66062;52.464;16.922;2023-04-24T05:24:59;15.55;;;9.63;;
77109;SDS011;66062;52.464;16.922;2023-04-24T05:27:25;17.25;;;10.35;;
77109;SDS011;66062;52.464;16.922;2023-04-24T05:29:50;13.88;;;8.82;;
77109;SDS011;66062;52.464;16.922;2023-04-24T05:32:16;15.82;;;9.40;;
77109;SDS011;66062;52.464;16.922;2023-04-24T05:34:41;14.02;;;9.02;;
77109;SDS011;66062;52.464;16.922;2023-04-24T05:37:08;17.13;;;9.60;;
77109;SDS011;66062;52.464;16.922;2023-04-24T05:39:35;15.98;;;10.32;;
77109;SDS011;66062;52.464;16.922;2023-04-24T05:42:01;13.23;;;8.38;;
77109;SDS011;66062;52.464;16.922;2023-04-24T05:44:27;13.55;;;9.05;;
77109;SDS011;66062;52.464;16.922;2023-04-24T05:46:52;12.05;;;8.60;;
77109;SDS011;66062;52.464;16.922;2023-04-24T05:49:21;14.27;;;9.32;;
77109;SDS011;66062;52.464;16.922;2023-04-24T05:51:47;12.98;;;9.00;;
77109;SDS011;66062;52.464;16.922;2023-04-24T05:54:13;17.10;;;9.80;;
77109;SDS011;66062;52.464;16.922;2023-04-24T05:56:38;12.43;;;8.73;;
77109;SDS011;66062;52.464;16.922;2023-04-24T05:59:04;14.07;;;8.68;;
77109;SDS011;66062;52.464;16.922;2023-04-24T06:01:30;11.90;;;8.60;;
77109;SDS011;66062;52.464;16.922;2023-04-24T06:03:56;12.25;;;8.43;;
77109;SDS011;66062;52.464;16.922;2023-04-24T06:06:23;14.23;;;8.77;;
77109;SDS011;66062;52.464;16.922;2023-04-24T06:08:48;13.15;;;8.57;;
77109;SDS011;66062;52.464;16.922;2023-04-24T06:11:14;13.18;;;8.73;;
77109;SDS011;66062;52.464;16.922;2023-04-24T06:13:40;14.00;;;9.32;;
77109;SDS011;66062;52.464;16.922;2023-04-24T06:16:05;14.68;;;8.57;;
77109;SDS011;66062;52.464;16.922;2023-04-24T06:18:31;11.85;;;7.97;;
77109;SDS011;66062;52.464;16.922;2023-04-24T06:20:57;13.48;;;8.52;;
77109;SDS011;66062;52.464;16.922;2023-04-24T06:23:22;17.05;;;9.50;;
77109;SDS011;66062;52.464;16.922;2023-04-24T06:25:48;13.43;;;9.52;;
77109;SDS011;66062;52.464;16.922;2023-04-24T06:28:13;14.50;;;8.50;;
77109;SDS011;66062;52.464;16.922;2023-04-24T06:30:39;14.07;;;9.18;;
77109;SDS011;66062;52.464;16.922;2023-04-24T06:33:04;12.80;;;8.95;;
77109;SDS011;66062;52.464;16.922;2023-04-24T06:35:30;15.40;;;9.63;;
77109;SDS011;66062;52.464;16.922;2023-04-24T06:37:55;15.82;;;8.85;;
77109;SDS011;66062;52.464;16.922;2023-04-24T06:40:21;13.55;;;8.77;;
77109;SDS011;66062;52.464;16.922;2023-04-24T06:42:47;14.23;;;8.65;;
77109;SDS011;66062;52.464;16.922;2023-04-24T06:45:13;15.48;;;8.40;;
77109;SDS011;66062;52.464;16.922;2023-04-24T06:47:38;17.08;;;9.13;;
77109;SDS011;66062;52.464;16.922;2023-04-24T06:50:04;15.52;;;8.63;;
77109;SDS011;66062;52.464;16.922;2023-04-24T06:52:30;13.98;;;8.38;;
77109;SDS011;66062;52.464;16.922;2023-04-24T06:55:00;15.32;;;8.57;;
77109;SDS011;66062;52.464;16.922;2023-04-24T06:57:27;12.40;;;9.30;;
77109;SDS011;66062;52.464;16.922;2023-04-24T06:59:53;11.85;;;7.72;;
77109;SDS011;66062;52.464;16.922;2023-04-24T07:02:19;12.77;;;8.23;;
77109;SDS011;66062;52.464;16.922;2023-04-24T07:04:45;10.48;;;7.95;;
77109;SDS011;66062;52.464;16.922;2023-04-24T07:07:12;12.70;;;7.68;;
77109;SDS011;66062;52.464;16.922;2023-04-24T07:09:39;12.07;;;8.80;;
77109;SDS011;66062;52.464;16.922;2023-04-24T07:12:09;13.25;;;8.52;;
77109;SDS011;66062;52.464;16.922;2023-04-24T07:14:35;10.57;;;7.57;;
77109;SDS011;66062;52.464;16.922;2023-04-24T07:17:02;12.55;;;7.90;;
77109;SDS011;66062;52.464;16.922;2023-04-24T07:19:31;10.30;;;7.70;;
77109;SDS011;66062;52.464;16.922;2023-04-24T07:22:03;13.68;;;7.63;;
77109;SDS011;66062;52.464;16.922;2023-04-24T07:24:29;10.30;;;7.78;;
77109;SDS011;66062;52.464;16.922;2023-04-24T07:26:57;11.88;;;7.22;;
77109;SDS011;66062;52.464;16.922;2023-04-24T07:29:23;13.48;;;8.02;;
77109;SDS011;66062;52.464;16.922;2023-04-24T07:31:49;13.88;;;8.45;;
77109;SDS011;66062;52.464;16.922;2023-04-24T07:34:16;15.13;;;8.32;;
77109;SDS011;66062;52.464;16.922;2023-04-24T07:39:09;14.43;;;8.60;;
77109;SDS011;66062;52.464;16.922;2023-04-24T07:41:35;14.00;;;8.75;;
77109;SDS011;66062;52.464;16.922;2023-04-24T07:44:00;14.20;;;9.07;;
77109;SDS011;66062;52.464;16.922;2023-04-24T07:46:26;12.98;;;8.23;;
77109;SDS011;66062;52.464;16.922;2023-04-24T07:48:55;14.10;;;7.85;;
77109;SDS011;66062;52.464;16.922;2023-04-24T07:51:22;13.15;;;8.30;;
77109;SDS011;66062;52.464;16.922;2023-04-24T07:53:48;11.65;;;7.70;;
77109;SDS011;66062;52.464;16.922;2023-04-24T07:56:13;14.05;;;7.68;;
77109;SDS011;66062;52.464;16.922;2023-04-24T07:58:39;11.57;;;7.53;;
77109;SDS011;66062;52.464;16.922;2023-04-24T08:01:04;14.02;;;7.15;;
77109;SDS011;66062;52.464;16.922;2023-04-24T08:03:30;12.15;;;7.72;;
77109;SDS011;66062;52.464;16.922;2023-04-24T08:05:55;10.73;;;7.00;;
77109;SDS011;66062;52.464;16.922;2023-04-24T08:08:22;13.15;;;8.73;;
77109;SDS011;66062;52.464;16.922;2023-04-24T08:10:50;11.00;;;7.05;;
77109;SDS011;66062;52.464;16.922;2023-04-24T08:13:15;13.65;;;7.88;;
77109;SDS011;66062;52.464;16.922;2023-04-24T08:15:41;12.38;;;7.65;;
77109;SDS011;66062;52.464;16.922;2023-04-24T08:18:07;12.77;;;7.63;;
77109;SDS011;66062;52.464;16.922;2023-04-24T08:20:33;12.35;;;7.80;;
77109;SDS011;66062;52.464;16.922;2023-04-24T08:22:58;12.65;;;7.95;;
77109;SDS011;66062;52.464;16.922;2023-04-24T08:25:24;13.90;;;7.88;;
77109;SDS011;66062;52.464;16.922;2023-04-24T08:27:50;12.27;;;8.43;;
77109;SDS011;66062;52.464;16.922;2023-04-24T08:30:16;13.90;;;8.52;;
77109;SDS011;66062;52.464;16.922;2023-04-24T08:32:42;16.20;;;8.00;;
77109;SDS011;66062;52.464;16.922;2023-04-24T08:35:08;12.18;;;8.35;;
77109;SDS011;66062;52.464;16.922;2023-04-24T08:37:34;17.13;;;8.23;;
77109;SDS011;66062;52.464;16.922;2023-04-24T08:40:21;13.63;;;8.50;;
77109;SDS011;66062;52.464;16.922;2023-04-24T08:42:51;12.57;;;7.88;;
77109;SDS011;66062;52.464;16.922;2023-04-24T08:45:21;13.30;;;8.15;;
77109;SDS011;66062;52.464;16.922;2023-04-24T08:47:47;12.25;;;8.65;;
77109;SDS011;66062;52.464;16.922;2023-04-24T08:52:41;12.02;;;7.78;;
77109;SDS011;66062;52.464;16.922;2023-04-24T08:55:08;13.80;;;8.10;;
77109;SDS011;66062;52.464;16.922;2023-04-24T08:57:34;12.65;;;8.35;;
77109;SDS011;66062;52.464;16.922;2023-04-24T09:00:03;13.63;;;7.75;;
77109;SDS011;66062;52.464;16.922;2023-04-24T09:02:31;12.27;;;8.23;;
77109;SDS011;66062;52.464;16.922;2023-04-24T09:04:59;20.40;;;8.48;;
77109;SDS011;66062;52.464;16.922;2023-04-24T09:07:26;16.08;;;8.70;;
77109;SDS011;66062;52.464;16.922;2023-04-24T09:09:55;14.55;;;8.30;;
77109;SDS011;66062;52.464;16.922;2023-04-24T09:12:24;12.52;;;7.63;;
77109;SDS011;66062;52.464;16.922;2023-04-24T09:14:51;17.13;;;8.50;;
77109;SDS011;66062;52.464;16.922;2023-04-24T09:17:18;12.68;;;8.40;;
77109;SDS011;66062;52.464;16.922;2023-04-24T09:19:44;9.70;;;7.07;;
77109;SDS011;66062;52.464;16.922;2023-04-24T09:22:13;10.95;;;7.40;;
77109;SDS011;66062;52.464;16.922;2023-04-24T09:24:40;13.20;;;7.43;;
77109;SDS011;66062;52.464;16.922;2023-04-24T09:27:05;12.40;;;7.55;;
77109;SDS011;66062;52.464;16.922;2023-04-24T09:29:32;10.93;;;7.70;;
77109;SDS011;66062;52.464;16.922;2023-04-24T09:31:58;11.63;;;8.52;;
77109;SDS011;66062;52.464;16.922;2023-04-24T09:34:27;11.70;;;8.05;;
77109;SDS011;66062;52.464;16.922;2023-04-24T09:36:53;11.65;;;7.63;;
77109;SDS011;66062;52.464;16.922;2023-04-24T09:39:20;14.35;;;7.53;;
77109;SDS011;66062;52.464;16.922;2023-04-24T09:41:49;20.02;;;7.38;;
77109;SDS011;66062;52.464;16.922;2023-04-24T09:44:26;12.88;;;7.32;;
77109;SDS011;66062;52.464;16.922;2023-04-24T09:46:57;12.07;;;7.25;;
77109;SDS011;66062;52.464;16.922;2023-04-24T09:49:25;10.30;;;6.70;;
77109;SDS011;66062;52.464;16.922;2023-04-24T09:51:53;9.85;;;6.50;;
77109;SDS011;66062;52.464;16.922;2023-04-24T09:54:28;8.52;;;6.32;;
77109;SDS011;66062;52.464;16.922;2023-04-24T09:56:54;11.93;;;8.10;;
77109;SDS011;66062;52.464;16.922;2023-04-24T09:59:21;10.43;;;6.50;;
77109;SDS011;66062;52.464;16.922;2023-04-24T10:01:47;12.98;;;6.57;;
77109;SDS011;66062;52.464;16.922;2023-04-24T10:04:21;9.43;;;6.68;;
77109;SDS011;66062;52.464;16.922;2023-04-24T10:06:49;17.95;;;5.90;;
77109;SDS011;66062;52.464;16.922;2023-04-24T10:09:19;11.75;;;5.95;;
77109;SDS011;66062;52.464;16.922;2023-04-24T10:11:47;8.90;;;6.00;;
77109;SDS011;66062;52.464;16.922;2023-04-24T10:14:16;11.02;;;6.32;;
77109;SDS011;66062;52.464;16.922;2023-04-24T10:16:43;8.77;;;6.00;;
77109;SDS011;66062;52.464;16.922;2023-04-24T10:19:12;12.48;;;7.80;;
77109;SDS011;66062;52.464;16.922;2023-04-24T10:21:38;13.65;;;8.18;;
77109;SDS011;66062;52.464;16.922;2023-04-24T10:24:10;12.73;;;8.25;;
77109;SDS011;66062;52.464;16.922;2023-04-24T10:26:44;12.60;;;7.03;;
77109;SDS011;66062;52.464;16.922;2023-04-24T10:29:11;9.25;;;5.82;;
77109;SDS011;66062;52.464;16.922;2023-04-24T10:31:38;11.10;;;7.20;;
77109;SDS011;66062;52.464;16.922;2023-04-24T10:34:04;11.20;;;7.65;;
77109;SDS011;66062;52.464;16.922;2023-04-24T10:36:32;13.25;;;7.50;;
77109;SDS011;66062;52.464;16.922;2023-04-24T10:39:02;10.30;;;8.05;;
77109;SDS011;66062;52.464;16.922;2023-04-24T10:41:30;10.27;;;7.78;;
77109;SDS011;66062;52.464;16.922;2023-04-24T10:46:33;10.73;;;7.00;;
77109;SDS011;66062;52.464;16.922;2023-04-24T10:48:59;9.85;;;7.05;;
77109;SDS011;66062;52.464;16.922;2023-04-24T10:51:48;11.93;;;7.95;;
77109;SDS011;66062;52.464;16.922;2023-04-24T10:54:30;9.75;;;6.90;;
77109;SDS011;66062;52.464;16.922;2023-04-24T10:59:45;9.35;;;7.45;;
77109;SDS011;66062;52.464;16.922;2023-04-24T11:02:15;10.07;;;7.20;;
77109;SDS011;66062;52.464;16.922;2023-04-24T11:04:40;9.07;;;6.82;;
77109;SDS011;66062;52.464;16.922;2023-04-24T11:07:08;9.18;;;7.05;;
77109;SDS011;66062;52.464;16.922;2023-04-24T11:09:34;10.80;;;6.22;;
77109;SDS011;66062;52.464;16.922;2023-04-24T11:12:08;8.02;;;5.40;;
77109;SDS011;66062;52.464;16.922;2023-04-24T11:15:09;6.95;;;5.20;;
77109;SDS011;66062;52.464;16.922;2023-04-24T11:20:05;4.63;;;3.53;;
77109;SDS011;66062;52.464;16.922;2023-04-24T11:22:36;5.38;;;3.53;;
77109;SDS011;66062;52.464;16.922;2023-04-24T11:25:05;4.70;;;2.88;;
77109;SDS011;66062;52.464;16.922;2023-04-24T11:30:04;8.05;;;3.78;;
77109;SDS011;66062;52.464;16.922;2023-04-24T11:32:34;4.82;;;2.95;;
77109;SDS011;66062;52.464;16.922;2023-04-24T11:35:08;7.70;;;3.65;;
77109;SDS011;66062;52.464;16.922;2023-04-24T11:37:41;5.78;;;4.32;;
77109;SDS011;66062;52.464;16.922;2023-04-24T11:40:11;5.63;;;4.32;;
77109;SDS011;66062;52.464;16.922;2023-04-24T11:42:41;6.28;;;3.60;;
77109;SDS011;66062;52.464;16.922;2023-04-24T11:45:16;4.75;;;2.88;;
77109;SDS011;66062;52.464;16.922;2023-04-24T11:47:42;4.43;;;3.25;;
77109;SDS011;66062;52.464;16.922;2023-04-24T11:50:13;6.63;;;2.40;;
77109;SDS011;66062;52.464;16.922;2023-04-24T11:52:44;4.00;;;2.38;;
77109;SDS011;66062;52.464;16.922;2023-04-24T11:57:41;6.13;;;2.53;;
77109;SDS011;66062;52.464;16.922;2023-04-24T12:00:14;3.78;;;2.15;;
77109;SDS011;66062;52.464;16.922;2023-04-24T12:02:41;7.65;;;2.25;;
77109;SDS011;66062;52.464;16.922;2023-04-24T12:05:06;4.55;;;2.13;;
77109;SDS011;66062;52.464;16.922;2023-04-24T12:07:36;5.72;;;1.95;;
77109;SDS011;66062;52.464;16.922;2023-04-24T12:10:07;5.10;;;2.47;;
77109;SDS011;66062;52.464;16.922;2023-04-24T12:12:34;7.75;;;2.55;;
77109;SDS011;66062;52.464;16.922;2023-04-24T12:15:00;5.38;;;2.15;;
77109;SDS011;66062;52.464;16.922;2023-04-24T12:19:58;6.00;;;1.90;;
77109;SDS011;66062;52.464;16.922;2023-04-24T12:22:25;5.10;;;2.00;;
77109;SDS011;66062;52.464;16.922;2023-04-24T12:25:01;4.88;;;2.45;;
77109;SDS011;66062;52.464;16.922;2023-04-24T12:27:29;3.65;;;2.08;;
77109;SDS011;66062;52.464;16.922;2023-04-24T12:29:58;4.97;;;2.17;;
77109;SDS011;66062;52.464;16.922;2023-04-24T12:32:25;4.18;;;2.08;;
77109;SDS011;66062;52.464;16.922;2023-04-24T12:34:54;7.55;;;2.90;;
77109;SDS011;66062;52.464;16.922;2023-04-24T12:37:22;8.15;;;2.20;;
77109;SDS011;66062;52.464;16.922;2023-04-24T12:40:08;5.00;;;2.17;;
77109;SDS011;66062;52.464;16.922;2023-04-24T12:42:36;4.20;;;2.40;;
77109;SDS011;66062;52.464;16.922;2023-04-24T12:45:09;3.60;;;2.22;;
77109;SDS011;66062;52.464;16.922;2023-04-24T12:47:37;3.83;;;2.58;;
77109;SDS011;66062;52.464;16.922;2023-04-24T12:50:03;4.25;;;2.40;;
77109;SDS011;66062;52.464;16.922;2023-04-24T12:52:29;6.05;;;2.63;;
77109;SDS011;66062;52.464;16.922;2023-04-24T12:54:56;3.13;;;1.83;;
77109;SDS011;66062;52.464;16.922;2023-04-24T12:57:23;4.00;;;1.55;;
77109;SDS011;66062;52.464;16.922;2023-04-24T13:04:46;4.45;;;1.83;;
77109;SDS011;66062;52.464;16.922;2023-04-24T13:07:12;3.72;;;1.75;;
77109;SDS011;66062;52.464;16.922;2023-04-24T13:14:30;6.32;;;1.70;;
77109;SDS011;66062;52.464;16.922;2023-04-24T13:16:56;5.57;;;1.67;;
77109;SDS011;66062;52.464;16.922;2023-04-24T13:19:24;7.13;;;2.28;;
77109;SDS011;66062;52.464;16.922;2023-04-24T13:21:54;3.70;;;1.98;;
77109;SDS011;66062;52.464;16.922;2023-04-24T13:24:21;3.80;;;1.90;;
77109;SDS011;66062;52.464;16.922;2023-04-24T13:26:49;4.20;;;2.20;;
77109;SDS011;66062;52.464;16.922;2023-04-24T13:29:16;6.10;;;2.17;;
77109;SDS011;66062;52.464;16.922;2023-04-24T13:31:42;4.35;;;2.25;;
77109;SDS011;66062;52.464;16.922;2023-04-24T13:34:07;5.18;;;2.40;;
77109;SDS011;66062;52.464;16.922;2023-04-24T13:36:33;5.50;;;2.45;;
77109;SDS011;66062;52.464;16.922;2023-04-24T13:38:58;4.60;;;2.38;;
77109;SDS011;66062;52.464;16.922;2023-04-24T13:41:24;3.80;;;2.40;;
77109;SDS011;66062;52.464;16.922;2023-04-24T13:43:50;2.85;;;2.00;;
77109;SDS011;66062;52.464;16.922;2023-04-24T13:46:16;4.82;;;2.13;;
77109;SDS011;66062;52.464;16.922;2023-04-24T13:48:41;4.75;;;2.15;;
77109;SDS011;66062;52.464;16.922;2023-04-24T13:51:07;8.38;;;4.57;;
77109;SDS011;66062;52.464;16.922;2023-04-24T13:53:35;4.40;;;1.20;;
77109;SDS011;66062;52.464;16.922;2023-04-24T13:56:03;5.22;;;1.45;;
77109;SDS011;66062;52.464;16.922;2023-04-24T13:58:30;3.17;;;1.23;;
77109;SDS011;66062;52.464;16.922;2023-04-24T14:00:57;2.53;;;1.02;;
77109;SDS011;66062;52.464;16.922;2023-04-24T14:03:22;3.08;;;1.10;;
77109;SDS011;66062;52.464;16.922;2023-04-24T14:05:48;5.30;;;0.98;;
77109;SDS011;66062;52.464;16.922;2023-04-24T14:08:13;2.53;;;1.08;;
77109;SDS011;66062;52.464;16.922;2023-04-24T14:10:39;2.28;;;0.90;;
77109;SDS011;66062;52.464;16.922;2023-04-24T14:13:05;5.68;;;1.00;;
77109;SDS011;66062;52.464;16.922;2023-04-24T14:15:31;3.60;;;1.00;;
77109;SDS011;66062;52.464;16.922;2023-04-24T14:17:57;3.15;;;1.08;;
77109;SDS011;66062;52.464;16.922;2023-04-24T14:20:25;4.32;;;1.33;;
77109;SDS011;66062;52.464;16.922;2023-04-24T14:22:50;7.25;;;1.17;;
77109;SDS011;66062;52.464;16.922;2023-04-24T14:25:16;2.65;;;0.80;;
77109;SDS011;66062;52.464;16.922;2023-04-24T14:27:41;1.27;;;0.47;;
77109;SDS011;66062;52.464;16.922;2023-04-24T14:30:07;7.22;;;0.80;;
77109;SDS011;66062;52.464;16.922;2023-04-24T14:32:33;3.00;;;0.65;;
77109;SDS011;66062;52.464;16.922;2023-04-24T14:34:59;2.42;;;0.95;;
77109;SDS011;66062;52.464;16.922;2023-04-24T14:37:24;3.83;;;0.90;;
77109;SDS011;66062;52.464;16.922;2023-04-24T14:39:50;2.47;;;0.90;;
77109;SDS011;66062;52.464;16.922;2023-04-24T14:42:15;2.45;;;0.60;;
77109;SDS011;66062;52.464;16.922;2023-04-24T14:44:42;4.28;;;0.73;;
77109;SDS011;66062;52.464;16.922;2023-04-24T14:47:07;2.88;;;0.55;;
77109;SDS011;66062;52.464;16.922;2023-04-24T14:49:32;8.05;;;1.00;;